sensor_id;sensor_type;location;lat;lon;timestamp;P1;durP1;ratioP1;P2;durP2;ratioP2
20721;SDS011;10522;52.198;9.890;2023-04-24T00:00:50;2.30;;;1.10;;
20721;SDS011;10522;52.198;9.890;2023-04-24T00:03:17;1.80;;;1.10;;
20721;SDS011;10522;52.198;9.890;2023-04-24T00:05:45;1.30;;;1.20;;
20721;SDS011;10522;52.198;9.890;2023-04-24T00:08:11;4.23;;;1.07;;
20721;SDS011;10522;52.198;9.890;2023-04-24T00:10:37;1.37;;;1.20;;
20721;SDS011;10522;52.198;9.890;2023-04-24T00:13:02;1.53;;;1.00;;
20721;SDS011;10522;52.198;9.890;2023-04-24T00:15:28;3.00;;;1.13;;
20721;SDS011;10522;52.198;9.890;2023-04-24T00:17:54;1.20;;;1.10;;
20721;SDS011;10522;52.198;9.890;2023-04-24T00:20:19;1.20;;;1.10;;
20721;SDS011;10522;52.198;9.890;2023-04-24T00:22:46;2.63;;;1.20;;
20721;SDS011;10522;52.198;9.890;2023-04-24T00:25:11;1.53;;;1.10;;
20721;SDS011;10522;52.198;9.890;2023-04-24T00:27:37;2.37;;;1.20;;
20721;SDS011;10522;52.198;9.890;2023-04-24T00:30:03;1.30;;;1.20;;
20721;SDS011;10522;52.198;9.890;2023-04-24T00:32:30;1.53;;;1.30;;
20721;SDS011;10522;52.198;9.890;2023-04-24T00:34:55;1.17;;;1.07;;
20721;SDS011;10522;52.198;9.890;2023-04-24T00:37:21;2.77;;;1.53;;
20721;SDS011;10522;52.198;9.890;2023-04-24T00:39:46;4.43;;;1.50;;
20721;SDS011;10522;52.198;9.890;2023-04-24T00:42:12;1.57;;;1.10;;
20721;SDS011;10522;52.198;9.890;2023-04-24T00:44:37;4.63;;;1.50;;
20721;SDS011;10522;52.198;9.890;2023-04-24T00:47:03;2.53;;;1.20;;
20721;SDS011;10522;52.198;9.890;2023-04-24T00:49:29;2.07;;;1.20;;
20721;SDS011;10522;52.198;9.890;2023-04-24T00:51:55;1.83;;;1.20;;
20721;SDS011;10522;52.198;9.890;2023-04-24T00:54:21;1.23;;;1.13;;
20721;SDS011;10522;52.198;9.890;2023-04-24T00:56:47;1.20;;;1.13;;
20721;SDS011;10522;52.198;9.890;2023-04-24T00:59:14;2.57;;;1.30;;
20721;SDS011;10522;52.198;9.890;2023-04-24T01:01:42;1.30;;;1.10;;
20721;SDS011;10522;52.198;9.890;2023-04-24T01:04:09;3.10;;;1.30;;
20721;SDS011;10522;52.198;9.890;2023-04-24T01:06:38;3.90;;;1.30;;
20721;SDS011;10522;52.198;9.890;2023-04-24T01:09:04;2.10;;;1.43;;
20721;SDS011;10522;52.198;9.890;2023-04-24T01:11:30;1.50;;;1.40;;
20721;SDS011;10522;52.198;9.890;2023-04-24T01:13:56;1.97;;;1.47;;
20721;SDS011;10522;52.198;9.890;2023-04-24T01:16:22;3.53;;;1.30;;
20721;SDS011;10522;52.198;9.890;2023-04-24T01:18:48;1.43;;;1.27;;
20721;SDS011;10522;52.198;9.890;2023-04-24T01:21:14;1.60;;;1.50;;
20721;SDS011;10522;52.198;9.890;2023-04-24T01:23:42;3.00;;;1.40;;
20721;SDS011;10522;52.198;9.890;2023-04-24T01:26:08;3.30;;;1.30;;
20721;SDS011;10522;52.198;9.890;2023-04-24T01:28:34;2.77;;;1.23;;
20721;SDS011;10522;52.198;9.890;2023-04-24T01:30:59;2.33;;;1.30;;
20721;SDS011;10522;52.198;9.890;2023-04-24T01:33:25;0.93;;;0.90;;
20721;SDS011;10522;52.198;9.890;2023-04-24T01:35:51;2.00;;;1.60;;
20721;SDS011;10522;52.198;9.890;2023-04-24T01:38:17;1.33;;;1.10;;
20721;SDS011;10522;52.198;9.890;2023-04-24T01:40:43;1.20;;;1.10;;
20721;SDS011;10522;52.198;9.890;2023-04-24T01:43:08;1.60;;;1.50;;
20721;SDS011;10522;52.198;9.890;2023-04-24T01:45:34;1.40;;;1.30;;
20721;SDS011;10522;52.198;9.890;2023-04-24T01:48:00;2.03;;;1.20;;
20721;SDS011;10522;52.198;9.890;2023-04-24T01:50:25;2.77;;;1.60;;
20721;SDS011;10522;52.198;9.890;2023-04-24T01:52:51;2.60;;;1.10;;
20721;SDS011;10522;52.198;9.890;2023-04-24T01:55:17;1.63;;;1.30;;
20721;SDS011;10522;52.198;9.890;2023-04-24T01:57:42;2.40;;;1.20;;
20721;SDS011;10522;52.198;9.890;2023-04-24T02:00:08;2.00;;;1.13;;
20721;SDS011;10522;52.198;9.890;2023-04-24T02:02:37;1.70;;;1.27;;
20721;SDS011;10522;52.198;9.890;2023-04-24T02:05:05;1.27;;;1.10;;
20721;SDS011;10522;52.198;9.890;2023-04-24T02:07:31;1.27;;;1.10;;
20721;SDS011;10522;52.198;9.890;2023-04-24T02:09:57;0.90;;;0.90;;
20721;SDS011;10522;52.198;9.890;2023-04-24T02:12:23;1.00;;;1.00;;
20721;SDS011;10522;52.198;9.890;2023-04-24T02:14:48;2.93;;;1.30;;
20721;SDS011;10522;52.198;9.890;2023-04-24T02:17:14;1.07;;;1.00;;
20721;SDS011;10522;52.198;9.890;2023-04-24T02:19:41;3.53;;;1.10;;
20721;SDS011;10522;52.198;9.890;2023-04-24T02:22:06;2.77;;;1.10;;
20721;SDS011;10522;52.198;9.890;2023-04-24T02:24:32;3.87;;;1.40;;
20721;SDS011;10522;52.198;9.890;2023-04-24T02:26:58;2.67;;;0.97;;
20721;SDS011;10522;52.198;9.890;2023-04-24T02:29:23;1.07;;;1.00;;
20721;SDS011;10522;52.198;9.890;2023-04-24T02:31:49;1.53;;;0.93;;
20721;SDS011;10522;52.198;9.890;2023-04-24T02:34:15;1.10;;;1.10;;
20721;SDS011;10522;52.198;9.890;2023-04-24T02:36:41;1.53;;;1.13;;
20721;SDS011;10522;52.198;9.890;2023-04-24T02:39:06;1.63;;;1.03;;
20721;SDS011;10522;52.198;9.890;2023-04-24T02:41:32;3.13;;;1.03;;
20721;SDS011;10522;52.198;9.890;2023-04-24T02:43:58;1.43;;;1.20;;
20721;SDS011;10522;52.198;9.890;2023-04-24T02:46:24;2.93;;;1.10;;
20721;SDS011;10522;52.198;9.890;2023-04-24T02:48:49;2.57;;;1.20;;
20721;SDS011;10522;52.198;9.890;2023-04-24T02:51:15;2.03;;;1.10;;
20721;SDS011;10522;52.198;9.890;2023-04-24T02:53:40;1.97;;;0.97;;
20721;SDS011;10522;52.198;9.890;2023-04-24T02:56:06;2.03;;;1.00;;
20721;SDS011;10522;52.198;9.890;2023-04-24T02:58:32;2.93;;;0.90;;
20721;SDS011;10522;52.198;9.890;2023-04-24T03:00:57;2.17;;;1.00;;
20721;SDS011;10522;52.198;9.890;2023-04-24T03:03:23;0.80;;;0.80;;
20721;SDS011;10522;52.198;9.890;2023-04-24T03:05:49;2.03;;;1.00;;
20721;SDS011;10522;52.198;9.890;2023-04-24T03:08:15;1.00;;;0.90;;
20721;SDS011;10522;52.198;9.890;2023-04-24T03:10:41;0.90;;;0.90;;
20721;SDS011;10522;52.198;9.890;2023-04-24T03:13:06;2.53;;;0.87;;
20721;SDS011;10522;52.198;9.890;2023-04-24T03:15:32;2.63;;;0.90;;
20721;SDS011;10522;52.198;9.890;2023-04-24T03:17:57;2.60;;;1.37;;
20721;SDS011;10522;52.198;9.890;2023-04-24T03:20:23;3.20;;;1.00;;
20721;SDS011;10522;52.198;9.890;2023-04-24T03:22:49;0.93;;;0.93;;
20721;SDS011;10522;52.198;9.890;2023-04-24T03:25:14;0.70;;;0.70;;
20721;SDS011;10522;52.198;9.890;2023-04-24T03:27:40;2.07;;;0.80;;
20721;SDS011;10522;52.198;9.890;2023-04-24T03:30:06;0.80;;;0.80;;
20721;SDS011;10522;52.198;9.890;2023-04-24T03:32:32;3.63;;;0.70;;
20721;SDS011;10522;52.198;9.890;2023-04-24T03:34:58;1.93;;;1.00;;
20721;SDS011;10522;52.198;9.890;2023-04-24T03:37:23;0.60;;;0.60;;
20721;SDS011;10522;52.198;9.890;2023-04-24T03:39:49;2.57;;;1.10;;
20721;SDS011;10522;52.198;9.890;2023-04-24T03:42:15;1.17;;;1.00;;
20721;SDS011;10522;52.198;9.890;2023-04-24T03:44:40;1.53;;;0.87;;
20721;SDS011;10522;52.198;9.890;2023-04-24T03:47:06;1.40;;;0.83;;
20721;SDS011;10522;52.198;9.890;2023-04-24T03:49:32;1.73;;;0.53;;
20721;SDS011;10522;52.198;9.890;2023-04-24T03:51:57;1.00;;;0.80;;
20721;SDS011;10522;52.198;9.890;2023-04-24T03:54:23;0.80;;;0.70;;
20721;SDS011;10522;52.198;9.890;2023-04-24T03:56:48;2.57;;;1.40;;
20721;SDS011;10522;52.198;9.890;2023-04-24T03:59:14;0.90;;;0.80;;
20721;SDS011;10522;52.198;9.890;2023-04-24T04:01:39;1.40;;;0.97;;
20721;SDS011;10522;52.198;9.890;2023-04-24T04:04:05;0.97;;;0.60;;
20721;SDS011;10522;52.198;9.890;2023-04-24T04:06:31;2.30;;;0.90;;
20721;SDS011;10522;52.198;9.890;2023-04-24T04:08:57;2.47;;;1.10;;
20721;SDS011;10522;52.198;9.890;2023-04-24T04:11:23;0.90;;;0.70;;
20721;SDS011;10522;52.198;9.890;2023-04-24T04:13:49;4.53;;;0.90;;
20721;SDS011;10522;52.198;9.890;2023-04-24T04:16:15;1.97;;;1.20;;
20721;SDS011;10522;52.198;9.890;2023-04-24T04:18:43;1.03;;;0.80;;
20721;SDS011;10522;52.198;9.890;2023-04-24T04:21:10;1.70;;;1.00;;
20721;SDS011;10522;52.198;9.890;2023-04-24T04:23:36;0.73;;;0.73;;
20721;SDS011;10522;52.198;9.890;2023-04-24T04:26:02;0.83;;;0.80;;
20721;SDS011;10522;52.198;9.890;2023-04-24T04:28:29;1.03;;;0.90;;
20721;SDS011;10522;52.198;9.890;2023-04-24T04:30:56;0.87;;;0.77;;
20721;SDS011;10522;52.198;9.890;2023-04-24T04:33:22;0.63;;;0.63;;
20721;SDS011;10522;52.198;9.890;2023-04-24T04:35:49;1.03;;;0.90;;
20721;SDS011;10522;52.198;9.890;2023-04-24T04:38:17;0.80;;;0.80;;
20721;SDS011;10522;52.198;9.890;2023-04-24T04:40:43;1.13;;;0.80;;
20721;SDS011;10522;52.198;9.890;2023-04-24T04:43:09;1.00;;;0.77;;
20721;SDS011;10522;52.198;9.890;2023-04-24T04:45:36;2.73;;;0.87;;
20721;SDS011;10522;52.198;9.890;2023-04-24T04:48:03;0.77;;;0.77;;
20721;SDS011;10522;52.198;9.890;2023-04-24T04:50:29;0.90;;;0.80;;
20721;SDS011;10522;52.198;9.890;2023-04-24T04:52:55;1.30;;;0.80;;
20721;SDS011;10522;52.198;9.890;2023-04-24T04:55:20;0.87;;;0.83;;
20721;SDS011;10522;52.198;9.890;2023-04-24T04:57:46;3.80;;;0.77;;
20721;SDS011;10522;52.198;9.890;2023-04-24T05:00:12;0.93;;;0.70;;
20721;SDS011;10522;52.198;9.890;2023-04-24T05:02:38;1.90;;;0.70;;
20721;SDS011;10522;52.198;9.890;2023-04-24T05:05:04;0.70;;;0.70;;
20721;SDS011;10522;52.198;9.890;2023-04-24T05:07:31;1.07;;;0.77;;
20721;SDS011;10522;52.198;9.890;2023-04-24T05:09:56;1.77;;;1.20;;
20721;SDS011;10522;52.198;9.890;2023-04-24T05:12:22;1.23;;;1.13;;
20721;SDS011;10522;52.198;9.890;2023-04-24T05:14:48;1.10;;;1.00;;
20721;SDS011;10522;52.198;9.890;2023-04-24T05:17:13;2.27;;;1.17;;
20721;SDS011;10522;52.198;9.890;2023-04-24T05:19:40;1.13;;;1.00;;
20721;SDS011;10522;52.198;9.890;2023-04-24T05:22:05;1.93;;;0.90;;
20721;SDS011;10522;52.198;9.890;2023-04-24T05:24:35;0.90;;;0.90;;
20721;SDS011;10522;52.198;9.890;2023-04-24T05:27:01;0.67;;;0.67;;
20721;SDS011;10522;52.198;9.890;2023-04-24T05:29:27;0.80;;;0.80;;
20721;SDS011;10522;52.198;9.890;2023-04-24T05:31:55;2.00;;;0.80;;
20721;SDS011;10522;52.198;9.890;2023-04-24T05:34:21;0.63;;;0.63;;
20721;SDS011;10522;52.198;9.890;2023-04-24T05:36:47;1.80;;;0.80;;
20721;SDS011;10522;52.198;9.890;2023-04-24T05:39:13;1.13;;;0.80;;
20721;SDS011;10522;52.198;9.890;2023-04-24T05:41:39;1.70;;;1.00;;
20721;SDS011;10522;52.198;9.890;2023-04-24T05:44:04;1.10;;;0.80;;
20721;SDS011;10522;52.198;9.890;2023-04-24T05:46:30;3.50;;;0.80;;
20721;SDS011;10522;52.198;9.890;2023-04-24T05:48:55;1.63;;;0.90;;
20721;SDS011;10522;52.198;9.890;2023-04-24T05:51:21;1.60;;;1.30;;
20721;SDS011;10522;52.198;9.890;2023-04-24T05:53:47;4.50;;;1.70;;
20721;SDS011;10522;52.198;9.890;2023-04-24T05:56:12;0.80;;;0.80;;
20721;SDS011;10522;52.198;9.890;2023-04-24T05:58:38;0.80;;;0.80;;
20721;SDS011;10522;52.198;9.890;2023-04-24T06:01:04;0.80;;;0.80;;
20721;SDS011;10522;52.198;9.890;2023-04-24T06:03:30;0.87;;;0.77;;
20721;SDS011;10522;52.198;9.890;2023-04-24T06:05:56;1.13;;;0.60;;
20721;SDS011;10522;52.198;9.890;2023-04-24T06:08:22;0.70;;;0.70;;
20721;SDS011;10522;52.198;9.890;2023-04-24T06:10:47;2.43;;;0.77;;
20721;SDS011;10522;52.198;9.890;2023-04-24T06:13:13;0.70;;;0.70;;
20721;SDS011;10522;52.198;9.890;2023-04-24T06:15:38;1.17;;;0.67;;
20721;SDS011;10522;52.198;9.890;2023-04-24T06:18:05;0.67;;;0.67;;
20721;SDS011;10522;52.198;9.890;2023-04-24T06:20:31;2.17;;;0.80;;
20721;SDS011;10522;52.198;9.890;2023-04-24T06:22:56;2.70;;;0.70;;
20721;SDS011;10522;52.198;9.890;2023-04-24T06:25:24;0.90;;;0.90;;
20721;SDS011;10522;52.198;9.890;2023-04-24T06:27:50;1.23;;;0.90;;
20721;SDS011;10522;52.198;9.890;2023-04-24T06:30:16;0.90;;;0.90;;
20721;SDS011;10522;52.198;9.890;2023-04-24T06:32:41;1.43;;;1.00;;
20721;SDS011;10522;52.198;9.890;2023-04-24T06:35:07;3.90;;;1.00;;
20721;SDS011;10522;52.198;9.890;2023-04-24T06:37:34;1.30;;;1.20;;
20721;SDS011;10522;52.198;9.890;2023-04-24T06:40:00;1.33;;;1.23;;
20721;SDS011;10522;52.198;9.890;2023-04-24T06:42:26;1.73;;;1.30;;
20721;SDS011;10522;52.198;9.890;2023-04-24T06:44:52;4.33;;;1.70;;
20721;SDS011;10522;52.198;9.890;2023-04-24T06:47:18;2.10;;;1.77;;
20721;SDS011;10522;52.198;9.890;2023-04-24T06:49:44;3.80;;;1.70;;
20721;SDS011;10522;52.198;9.890;2023-04-24T06:52:09;2.00;;;1.80;;
20721;SDS011;10522;52.198;9.890;2023-04-24T06:54:35;1.67;;;1.53;;
20721;SDS011;10522;52.198;9.890;2023-04-24T06:57:01;1.90;;;1.80;;
20721;SDS011;10522;52.198;9.890;2023-04-24T06:59:28;3.03;;;2.07;;
20721;SDS011;10522;52.198;9.890;2023-04-24T07:01:54;1.73;;;1.63;;
20721;SDS011;10522;52.198;9.890;2023-04-24T07:04:20;2.30;;;2.10;;
20721;SDS011;10522;52.198;9.890;2023-04-24T07:06:45;2.23;;;1.80;;
20721;SDS011;10522;52.198;9.890;2023-04-24T07:09:12;2.90;;;2.03;;
20721;SDS011;10522;52.198;9.890;2023-04-24T07:11:39;5.90;;;2.10;;
20721;SDS011;10522;52.198;9.890;2023-04-24T07:14:05;2.40;;;2.20;;
20721;SDS011;10522;52.198;9.890;2023-04-24T07:16:31;2.07;;;1.87;;
20721;SDS011;10522;52.198;9.890;2023-04-24T07:18:57;2.93;;;2.67;;
20721;SDS011;10522;52.198;9.890;2023-04-24T07:21:23;2.73;;;2.30;;
20721;SDS011;10522;52.198;9.890;2023-04-24T07:23:48;3.13;;;2.50;;
20721;SDS011;10522;52.198;9.890;2023-04-24T07:26:14;3.37;;;3.07;;
20721;SDS011;10522;52.198;9.890;2023-04-24T07:28:40;3.73;;;3.00;;
20721;SDS011;10522;52.198;9.890;2023-04-24T07:31:06;5.03;;;3.40;;
20721;SDS011;10522;52.198;9.890;2023-04-24T07:33:32;7.73;;;3.87;;
20721;SDS011;10522;52.198;9.890;2023-04-24T07:35:58;4.03;;;3.63;;
20721;SDS011;10522;52.198;9.890;2023-04-24T07:38:24;4.97;;;4.17;;
20721;SDS011;10522;52.198;9.890;2023-04-24T07:40:50;6.17;;;4.50;;
20721;SDS011;10522;52.198;9.890;2023-04-24T07:43:16;5.40;;;4.80;;
20721;SDS011;10522;52.198;9.890;2023-04-24T07:45:45;6.03;;;4.93;;
20721;SDS011;10522;52.198;9.890;2023-04-24T07:48:10;7.10;;;4.53;;
20721;SDS011;10522;52.198;9.890;2023-04-24T07:50:38;7.40;;;5.07;;
20721;SDS011;10522;52.198;9.890;2023-04-24T07:53:04;7.60;;;5.33;;
20721;SDS011;10522;52.198;9.890;2023-04-24T07:55:29;10.40;;;5.10;;
20721;SDS011;10522;52.198;9.890;2023-04-24T07:57:55;9.83;;;5.60;;
20721;SDS011;10522;52.198;9.890;2023-04-24T08:00:21;7.40;;;6.23;;
20721;SDS011;10522;52.198;9.890;2023-04-24T08:02:46;10.87;;;6.40;;
20721;SDS011;10522;52.198;9.890;2023-04-24T08:05:12;8.87;;;6.47;;
20721;SDS011;10522;52.198;9.890;2023-04-24T08:07:38;8.60;;;5.50;;
20721;SDS011;10522;52.198;9.890;2023-04-24T08:10:04;9.13;;;6.13;;
20721;SDS011;10522;52.198;9.890;2023-04-24T08:12:30;7.43;;;4.53;;
20721;SDS011;10522;52.198;9.890;2023-04-24T08:14:55;8.53;;;6.30;;
20721;SDS011;10522;52.198;9.890;2023-04-24T08:17:21;10.30;;;6.27;;
20721;SDS011;10522;52.198;9.890;2023-04-24T08:19:46;12.37;;;6.53;;
20721;SDS011;10522;52.198;9.890;2023-04-24T08:22:13;9.37;;;6.37;;
20721;SDS011;10522;52.198;9.890;2023-04-24T08:24:40;7.43;;;5.73;;
20721;SDS011;10522;52.198;9.890;2023-04-24T08:27:05;10.07;;;5.80;;
20721;SDS011;10522;52.198;9.890;2023-04-24T08:29:31;7.57;;;6.10;;
20721;SDS011;10522;52.198;9.890;2023-04-24T08:31:57;8.50;;;5.80;;
20721;SDS011;10522;52.198;9.890;2023-04-24T08:34:22;6.30;;;4.80;;
20721;SDS011;10522;52.198;9.890;2023-04-24T08:36:48;6.23;;;4.63;;
20721;SDS011;10522;52.198;9.890;2023-04-24T08:39:14;7.03;;;3.97;;
20721;SDS011;10522;52.198;9.890;2023-04-24T08:41:41;6.67;;;5.53;;
20721;SDS011;10522;52.198;9.890;2023-04-24T08:44:11;5.30;;;4.00;;
20721;SDS011;10522;52.198;9.890;2023-04-24T08:46:39;7.57;;;5.43;;
20721;SDS011;10522;52.198;9.890;2023-04-24T08:49:06;7.03;;;4.80;;
20721;SDS011;10522;52.198;9.890;2023-04-24T08:51:31;5.13;;;4.60;;
20721;SDS011;10522;52.198;9.890;2023-04-24T08:53:57;5.63;;;4.20;;
20721;SDS011;10522;52.198;9.890;2023-04-24T08:56:23;5.47;;;3.73;;
20721;SDS011;10522;52.198;9.890;2023-04-24T08:58:50;6.10;;;3.53;;
20721;SDS011;10522;52.198;9.890;2023-04-24T09:01:18;5.07;;;4.20;;
20721;SDS011;10522;52.198;9.890;2023-04-24T09:03:45;4.17;;;3.37;;
20721;SDS011;10522;52.198;9.890;2023-04-24T09:06:14;5.87;;;4.87;;
20721;SDS011;10522;52.198;9.890;2023-04-24T09:08:42;7.10;;;4.30;;
20721;SDS011;10522;52.198;9.890;2023-04-24T09:11:10;6.13;;;5.10;;
20721;SDS011;10522;52.198;9.890;2023-04-24T09:13:36;5.93;;;4.63;;
20721;SDS011;10522;52.198;9.890;2023-04-24T09:16:02;6.50;;;4.13;;
20721;SDS011;10522;52.198;9.890;2023-04-24T09:18:28;6.23;;;4.33;;
20721;SDS011;10522;52.198;9.890;2023-04-24T09:21:00;4.60;;;3.07;;
20721;SDS011;10522;52.198;9.890;2023-04-24T09:23:33;4.23;;;3.33;;
20721;SDS011;10522;52.198;9.890;2023-04-24T09:26:00;3.87;;;3.27;;
20721;SDS011;10522;52.198;9.890;2023-04-24T09:28:30;5.20;;;4.23;;
20721;SDS011;10522;52.198;9.890;2023-04-24T09:31:08;5.47;;;3.90;;
20721;SDS011;10522;52.198;9.890;2023-04-24T09:36:46;3.70;;;3.10;;
20721;SDS011;10522;52.198;9.890;2023-04-24T09:39:12;6.73;;;3.47;;
20721;SDS011;10522;52.198;9.890;2023-04-24T09:41:49;5.17;;;3.73;;
20721;SDS011;10522;52.198;9.890;2023-04-24T09:44:23;5.67;;;4.03;;
20721;SDS011;10522;52.198;9.890;2023-04-24T09:46:55;5.50;;;2.87;;
20721;SDS011;10522;52.198;9.890;2023-04-24T09:49:29;3.30;;;3.00;;
20721;SDS011;10522;52.198;9.890;2023-04-24T09:54:36;3.50;;;2.57;;
20721;SDS011;10522;52.198;9.890;2023-04-24T09:57:02;4.13;;;2.30;;
20721;SDS011;10522;52.198;9.890;2023-04-24T09:59:30;3.87;;;2.67;;
20721;SDS011;10522;52.198;9.890;2023-04-24T10:01:55;2.73;;;2.07;;
20721;SDS011;10522;52.198;9.890;2023-04-24T10:04:24;2.43;;;2.13;;
20721;SDS011;10522;52.198;9.890;2023-04-24T10:06:51;4.07;;;2.67;;
20721;SDS011;10522;52.198;9.890;2023-04-24T10:09:20;2.90;;;2.60;;
20721;SDS011;10522;52.198;9.890;2023-04-24T10:11:47;1.90;;;1.80;;
20721;SDS011;10522;52.198;9.890;2023-04-24T10:14:15;4.00;;;2.77;;
20721;SDS011;10522;52.198;9.890;2023-04-24T10:16:48;4.57;;;2.50;;
20721;SDS011;10522;52.198;9.890;2023-04-24T10:19:15;4.13;;;2.47;;
20721;SDS011;10522;52.198;9.890;2023-04-24T10:21:43;4.77;;;2.47;;
20721;SDS011;10522;52.198;9.890;2023-04-24T10:24:17;2.90;;;2.60;;
20721;SDS011;10522;52.198;9.890;2023-04-24T10:26:44;3.23;;;2.60;;
20721;SDS011;10522;52.198;9.890;2023-04-24T10:29:14;4.87;;;2.67;;
20721;SDS011;10522;52.198;9.890;2023-04-24T10:31:41;3.13;;;2.37;;
20721;SDS011;10522;52.198;9.890;2023-04-24T10:34:10;3.27;;;2.80;;
20721;SDS011;10522;52.198;9.890;2023-04-24T10:36:36;4.47;;;2.70;;
20721;SDS011;10522;52.198;9.890;2023-04-24T10:39:07;2.40;;;2.20;;
20721;SDS011;10522;52.198;9.890;2023-04-24T10:41:36;3.63;;;2.90;;
20721;SDS011;10522;52.198;9.890;2023-04-24T10:44:13;3.07;;;2.73;;
20721;SDS011;10522;52.198;9.890;2023-04-24T10:46:43;3.50;;;2.47;;
20721;SDS011;10522;52.198;9.890;2023-04-24T10:49:10;2.97;;;2.13;;
20721;SDS011;10522;52.198;9.890;2023-04-24T10:51:49;8.00;;;2.67;;
20721;SDS011;10522;52.198;9.890;2023-04-24T10:54:21;3.50;;;2.33;;
20721;SDS011;10522;52.198;9.890;2023-04-24T11:00:29;2.80;;;2.13;;
20721;SDS011;10522;52.198;9.890;2023-04-24T11:02:40;3.00;;;2.53;;
20721;SDS011;10522;52.198;9.890;2023-04-24T11:05:08;2.77;;;2.47;;
20721;SDS011;10522;52.198;9.890;2023-04-24T11:10:44;2.03;;;1.60;;
20721;SDS011;10522;52.198;9.890;2023-04-24T11:13:14;1.70;;;1.50;;
20721;SDS011;10522;52.198;9.890;2023-04-24T11:15:41;3.00;;;1.47;;
20721;SDS011;10522;52.198;9.890;2023-04-24T11:18:14;5.37;;;1.70;;
20721;SDS011;10522;52.198;9.890;2023-04-24T11:20:44;3.23;;;1.47;;
20721;SDS011;10522;52.198;9.890;2023-04-24T11:23:12;4.30;;;1.40;;
20721;SDS011;10522;52.198;9.890;2023-04-24T11:25:38;1.90;;;1.50;;
20721;SDS011;10522;52.198;9.890;2023-04-24T11:28:04;1.70;;;1.10;;
20721;SDS011;10522;52.198;9.890;2023-04-24T11:30:31;2.93;;;1.40;;
20721;SDS011;10522;52.198;9.890;2023-04-24T11:33:05;1.50;;;1.40;;
20721;SDS011;10522;52.198;9.890;2023-04-24T11:35:34;1.57;;;1.47;;
20721;SDS011;10522;52.198;9.890;2023-04-24T11:38:03;2.63;;;1.67;;
20721;SDS011;10522;52.198;9.890;2023-04-24T11:40:30;2.63;;;1.93;;
20721;SDS011;10522;52.198;9.890;2023-04-24T11:42:56;4.37;;;1.80;;
20721;SDS011;10522;52.198;9.890;2023-04-24T11:45:25;1.80;;;1.70;;
20721;SDS011;10522;52.198;9.890;2023-04-24T11:47:52;3.23;;;1.53;;
20721;SDS011;10522;52.198;9.890;2023-04-24T11:50:19;2.33;;;1.60;;
20721;SDS011;10522;52.198;9.890;2023-04-24T11:52:47;2.73;;;1.60;;
20721;SDS011;10522;52.198;9.890;2023-04-24T11:57:42;2.07;;;1.87;;
20721;SDS011;10522;52.198;9.890;2023-04-24T12:00:14;4.33;;;1.70;;
20721;SDS011;10522;52.198;9.890;2023-04-24T12:02:45;3.57;;;2.07;;
20721;SDS011;10522;52.198;9.890;2023-04-24T12:05:21;1.93;;;1.70;;
20721;SDS011;10522;52.198;9.890;2023-04-24T12:07:49;3.37;;;1.83;;
20721;SDS011;10522;52.198;9.890;2023-04-24T12:10:19;1.70;;;1.60;;
20721;SDS011;10522;52.198;9.890;2023-04-24T12:12:49;3.33;;;1.50;;
20721;SDS011;10522;52.198;9.890;2023-04-24T12:15:16;2.17;;;2.03;;
20721;SDS011;10522;52.198;9.890;2023-04-24T12:17:43;2.17;;;1.97;;
20721;SDS011;10522;52.198;9.890;2023-04-24T12:20:09;2.57;;;1.50;;
20721;SDS011;10522;52.198;9.890;2023-04-24T12:22:46;1.10;;;0.60;;
20721;SDS011;10522;52.198;9.890;2023-04-24T12:25:14;2.70;;;0.67;;
20721;SDS011;10522;52.198;9.890;2023-04-24T12:27:41;1.20;;;0.80;;
20721;SDS011;10522;52.198;9.890;2023-04-24T12:30:10;2.70;;;1.00;;
20721;SDS011;10522;52.198;9.890;2023-04-24T12:32:41;2.90;;;1.33;;
20721;SDS011;10522;52.198;9.890;2023-04-24T12:35:20;1.80;;;1.27;;
20721;SDS011;10522;52.198;9.890;2023-04-24T12:37:48;1.43;;;1.33;;
20721;SDS011;10522;52.198;9.890;2023-04-24T12:40:14;1.73;;;1.57;;
20721;SDS011;10522;52.198;9.890;2023-04-24T12:42:44;1.60;;;1.50;;
20721;SDS011;10522;52.198;9.890;2023-04-24T12:45:14;1.63;;;1.20;;
20721;SDS011;10522;52.198;9.890;2023-04-24T12:47:41;1.40;;;1.30;;
20721;SDS011;10522;52.198;9.890;2023-04-24T12:50:09;1.60;;;1.00;;
20721;SDS011;10522;52.198;9.890;2023-04-24T12:52:38;2.37;;;1.30;;
20721;SDS011;10522;52.198;9.890;2023-04-24T12:55:05;6.37;;;1.47;;
20721;SDS011;10522;52.198;9.890;2023-04-24T12:57:34;1.70;;;1.30;;
20721;SDS011;10522;52.198;9.890;2023-04-24T13:00:02;1.67;;;1.50;;
20721;SDS011;10522;52.198;9.890;2023-04-24T13:02:29;3.10;;;1.33;;
20721;SDS011;10522;52.198;9.890;2023-04-24T13:04:56;2.90;;;1.40;;
20721;SDS011;10522;52.198;9.890;2023-04-24T13:07:22;2.63;;;1.70;;
20721;SDS011;10522;52.198;9.890;2023-04-24T13:09:49;2.50;;;1.30;;
20721;SDS011;10522;52.198;9.890;2023-04-24T13:12:15;1.67;;;1.53;;
20721;SDS011;10522;52.198;9.890;2023-04-24T13:14:41;1.43;;;0.97;;
20721;SDS011;10522;52.198;9.890;2023-04-24T13:17:07;1.67;;;1.47;;
20721;SDS011;10522;52.198;9.890;2023-04-24T13:19:36;1.53;;;1.43;;
20721;SDS011;10522;52.198;9.890;2023-04-24T13:22:03;1.60;;;1.50;;
20721;SDS011;10522;52.198;9.890;2023-04-24T13:24:29;1.53;;;1.00;;
20721;SDS011;10522;52.198;9.890;2023-04-24T13:26:56;0.90;;;0.90;;
20721;SDS011;10522;52.198;9.890;2023-04-24T13:29:22;0.50;;;0.50;;
20721;SDS011;10522;52.198;9.890;2023-04-24T13:31:49;1.63;;;0.80;;
20721;SDS011;10522;52.198;9.890;2023-04-24T13:34:16;0.63;;;0.63;;
20721;SDS011;10522;52.198;9.890;2023-04-24T13:36:44;1.37;;;0.90;;
20721;SDS011;10522;52.198;9.890;2023-04-24T13:39:10;1.00;;;1.00;;
20721;SDS011;10522;52.198;9.890;2023-04-24T13:41:36;1.03;;;0.80;;
20721;SDS011;10522;52.198;9.890;2023-04-24T13:44:02;0.80;;;0.70;;
20721;SDS011;10522;52.198;9.890;2023-04-24T13:46:28;0.87;;;0.87;;
20721;SDS011;10522;52.198;9.890;2023-04-24T13:48:54;0.67;;;0.67;;
20721;SDS011;10522;52.198;9.890;2023-04-24T13:51:19;1.20;;;1.10;;
20721;SDS011;10522;52.198;9.890;2023-04-24T13:53:45;9.10;;;0.80;;
20721;SDS011;10522;52.198;9.890;2023-04-24T13:56:10;0.60;;;0.60;;
20721;SDS011;10522;52.198;9.890;2023-04-24T13:58:37;1.07;;;0.60;;
20721;SDS011;10522;52.198;9.890;2023-04-24T14:01:03;0.40;;;0.40;;
20721;SDS011;10522;52.198;9.890;2023-04-24T14:03:29;0.80;;;0.60;;
20721;SDS011;10522;52.198;9.890;2023-04-24T14:05:55;0.57;;;0.57;;
20721;SDS011;10522;52.198;9.890;2023-04-24T14:08:21;0.40;;;0.40;;
20721;SDS011;10522;52.198;9.890;2023-04-24T14:10:46;1.53;;;1.43;;
20721;SDS011;10522;52.198;9.890;2023-04-24T14:13:12;0.70;;;0.60;;
20721;SDS011;10522;52.198;9.890;2023-04-24T14:15:38;0.50;;;0.50;;
20721;SDS011;10522;52.198;9.890;2023-04-24T14:18:04;0.40;;;0.40;;
20721;SDS011;10522;52.198;9.890;2023-04-24T14:20:30;1.10;;;0.83;;
20721;SDS011;10522;52.198;9.890;2023-04-24T14:22:56;0.50;;;0.50;;
20721;SDS011;10522;52.198;9.890;2023-04-24T14:25:24;0.87;;;0.60;;
20721;SDS011;10522;52.198;9.890;2023-04-24T14:27:49;0.80;;;0.80;;
20721;SDS011;10522;52.198;9.890;2023-04-24T14:30:15;1.63;;;1.03;;
20721;SDS011;10522;52.198;9.890;2023-04-24T14:32:41;0.97;;;0.83;;
20721;SDS011;10522;52.198;9.890;2023-04-24T14:35:07;0.87;;;0.87;;
20721;SDS011;10522;52.198;9.890;2023-04-24T14:37:33;1.23;;;1.00;;
20721;SDS011;10522;52.198;9.890;2023-04-24T14:39:58;3.27;;;1.37;;
20721;SDS011;10522;52.198;9.890;2023-04-24T14:42:24;1.70;;;1.17;;
20721;SDS011;10522;52.198;9.890;2023-04-24T14:44:50;1.37;;;1.27;;
20721;SDS011;10522;52.198;9.890;2023-04-24T14:47:16;1.50;;;1.40;;
20721;SDS011;10522;52.198;9.890;2023-04-24T14:49:46;2.30;;;1.63;;
20721;SDS011;10522;52.198;9.890;2023-04-24T14:52:12;2.67;;;1.87;;
20721;SDS011;10522;52.198;9.890;2023-04-24T14:54:38;2.43;;;1.60;;
20721;SDS011;10522;52.198;9.890;2023-04-24T14:57:04;2.37;;;2.00;;
20721;SDS011;10522;52.198;9.890;2023-04-24T14:59:30;3.10;;;2.03;;